sensor_id;sensor_type;location;lat;lon;timestamp;temperature;humidity
22948;DHT22;11640;52.520;13.456;2023-04-25T00:00:10;9.10;99.90
22948;DHT22;11640;52.520;13.456;2023-04-25T00:05:15;9.00;99.90
22948;DHT22;11640;52.520;13.456;2023-04-25T00:10:19;8.90;99.90
22948;DHT22;11640;52.520;13.456;2023-04-25T00:15:21;9.00;99.90
22948;DHT22;11640;52.520;13.456;2023-04-25T00:20:23;9.00;99.90
22948;DHT22;11640;52.520;13.456;2023-04-25T00:25:26;9.00;99.90
22948;DHT22;11640;52.520;13.456;2023-04-25T00:30:28;9.00;99.90
22948;DHT22;11640;52.520;13.456;2023-04-25T00:35:30;9.00;99.90
22948;DHT22;11640;52.520;13.456;2023-04-25T00:40:31;9.00;99.90
22948;DHT22;11640;52.520;13.456;2023-04-25T00:45:36;8.90;99.90
22948;DHT22;11640;52.520;13.456;2023-04-25T00:50:39;9.00;99.90
22948;DHT22;11640;52.520;13.456;2023-04-25T00:55:42;8.90;99.90
22948;DHT22;11640;52.520;13.456;2023-04-25T01:00:45;8.90;99.90
22948;DHT22;11640;52.520;13.456;2023-04-25T01:05:48;8.90;99.90
22948;DHT22;11640;52.520;13.456;2023-04-25T01:10:50;8.90;99.90
22948;DHT22;11640;52.520;13.456;2023-04-25T01:15:52;8.90;99.90
22948;DHT22;11640;52.520;13.456;2023-04-25T01:20:55;8.90;99.90
22948;DHT22;11640;52.520;13.456;2023-04-25T01:25:57;8.90;99.90
22948;DHT22;11640;52.520;13.456;2023-04-25T01:30:59;8.90;99.90
22948;DHT22;11640;52.520;13.456;2023-04-25T01:36:02;8.90;99.90
22948;DHT22;11640;52.520;13.456;2023-04-25T01:41:03;8.90;99.90
22948;DHT22;11640;52.520;13.456;2023-04-25T01:46:06;8.90;99.90
22948;DHT22;11640;52.520;13.456;2023-04-25T01:51:08;9.00;99.90
22948;DHT22;11640;52.520;13.456;2023-04-25T01:56:10;9.00;99.90
22948;DHT22;11640;52.520;13.456;2023-04-25T02:01:13;9.00;99.90
22948;DHT22;11640;52.520;13.456;2023-04-25T02:06:21;9.00;99.90
22948;DHT22;11640;52.520;13.456;2023-04-25T02:11:25;9.00;99.90
22948;DHT22;11640;52.520;13.456;2023-04-25T02:16:42;9.00;99.90
22948;DHT22;11640;52.520;13.456;2023-04-25T02:21:45;9.10;99.90
22948;DHT22;11640;52.520;13.456;2023-04-25T02:26:47;9.00;99.90
22948;DHT22;11640;52.520;13.456;2023-04-25T02:31:48;9.00;99.90
22948;DHT22;11640;52.520;13.456;2023-04-25T02:36:51;9.00;99.90
22948;DHT22;11640;52.520;13.456;2023-04-25T02:41:53;9.00;99.90
22948;DHT22;11640;52.520;13.456;2023-04-25T02:46:55;9.00;99.90
22948;DHT22;11640;52.520;13.456;2023-04-25T02:51:58;9.00;99.90
22948;DHT22;11640;52.520;13.456;2023-04-25T02:57:00;9.00;99.90
22948;DHT22;11640;52.520;13.456;2023-04-25T03:02:06;9.00;99.90
22948;DHT22;11640;52.520;13.456;2023-04-25T03:07:08;9.00;99.90
22948;DHT22;11640;52.520;13.456;2023-04-25T03:12:10;8.90;99.90
22948;DHT22;11640;52.520;13.456;2023-04-25T03:17:12;8.90;99.90
22948;DHT22;11640;52.520;13.456;2023-04-25T03:22:13;8.90;99.90
22948;DHT22;11640;52.520;13.456;2023-04-25T03:27:16;9.00;99.90
22948;DHT22;11640;52.520;13.456;2023-04-25T03:32:18;9.00;99.90
22948;DHT22;11640;52.520;13.456;2023-04-25T03:37:20;8.90;99.90
22948;DHT22;11640;52.520;13.456;2023-04-25T03:42:22;8.90;99.90
22948;DHT22;11640;52.520;13.456;2023-04-25T03:47:25;8.90;99.90
22948;DHT22;11640;52.520;13.456;2023-04-25T03:52:27;8.90;99.90
22948;DHT22;11640;52.520;13.456;2023-04-25T03:57:29;8.80;99.90
22948;DHT22;11640;52.520;13.456;2023-04-25T04:02:31;8.80;99.90
22948;DHT22;11640;52.520;13.456;2023-04-25T04:07:35;8.80;99.90
22948;DHT22;11640;52.520;13.456;2023-04-25T04:12:43;8.80;99.90
22948;DHT22;11640;52.520;13.456;2023-04-25T04:17:46;8.80;99.90
22948;DHT22;11640;52.520;13.456;2023-04-25T04:22:48;8.80;99.90
22948;DHT22;11640;52.520;13.456;2023-04-25T04:27:52;8.80;99.90
22948;DHT22;11640;52.520;13.456;2023-04-25T04:33:13;8.80;99.90
22948;DHT22;11640;52.520;13.456;2023-04-25T04:38:18;8.80;99.90
22948;DHT22;11640;52.520;13.456;2023-04-25T04:43:20;8.90;99.90
22948;DHT22;11640;52.520;13.456;2023-04-25T04:48:36;8.80;99.90
22948;DHT22;11640;52.520;13.456;2023-04-25T04:53:54;8.90;99.90
22948;DHT22;11640;52.520;13.456;2023-04-25T04:59:22;9.00;99.90
22948;DHT22;11640;52.520;13.456;2023-04-25T05:04:42;8.90;99.90
22948;DHT22;11640;52.520;13.456;2023-04-25T05:10:00;8.90;99.90
22948;DHT22;11640;52.520;13.456;2023-04-25T05:15:22;9.00;99.90
22948;DHT22;11640;52.520;13.456;2023-04-25T05:20:40;9.00;99.90
22948;DHT22;11640;52.520;13.456;2023-04-25T05:25:55;9.00;99.90
22948;DHT22;11640;52.520;13.456;2023-04-25T05:31:11;9.00;99.90
22948;DHT22;11640;52.520;13.456;2023-04-25T05:36:22;9.10;99.90
22948;DHT22;11640;52.520;13.456;2023-04-25T05:41:24;9.10;99.90
22948;DHT22;11640;52.520;13.456;2023-04-25T05:46:33;9.10;99.90
22948;DHT22;11640;52.520;13.456;2023-04-25T05:52:05;9.10;99.90
22948;DHT22;11640;52.520;13.456;2023-04-25T05:57:25;9.20;99.90
22948;DHT22;11640;52.520;13.456;2023-04-25T06:02:29;9.20;99.90
22948;DHT22;11640;52.520;13.456;2023-04-25T06:07:31;9.20;99.90
22948;DHT22;11640;52.520;13.456;2023-04-25T06:12:33;9.20;99.90
22948;DHT22;11640;52.520;13.456;2023-04-25T06:17:35;9.30;99.90
22948;DHT22;11640;52.520;13.456;2023-04-25T06:22:37;9.30;99.90
22948;DHT22;11640;52.520;13.456;2023-04-25T06:27:39;9.30;99.90
22948;DHT22;11640;52.520;13.456;2023-04-25T06:32:41;9.30;99.90
22948;DHT22;11640;52.520;13.456;2023-04-25T06:37:43;9.20;99.90
22948;DHT22;11640;52.520;13.456;2023-04-25T06:42:45;9.10;99.90
22948;DHT22;11640;52.520;13.456;2023-04-25T06:48:22;9.20;99.90
22948;DHT22;11640;52.520;13.456;2023-04-25T06:53:25;9.20;99.90
22948;DHT22;11640;52.520;13.456;2023-04-25T06:58:33;9.20;99.90
22948;DHT22;11640;52.520;13.456;2023-04-25T07:03:46;9.10;99.90
22948;DHT22;11640;52.520;13.456;2023-04-25T07:08:52;9.00;99.90
22948;DHT22;11640;52.520;13.456;2023-04-25T07:13:54;9.20;99.90
22948;DHT22;11640;52.520;13.456;2023-04-25T07:18:57;9.10;99.90
22948;DHT22;11640;52.520;13.456;2023-04-25T07:23:58;9.00;99.90
22948;DHT22;11640;52.520;13.456;2023-04-25T07:29:05;9.00;99.90
22948;DHT22;11640;52.520;13.456;2023-04-25T07:34:07;8.70;99.90
22948;DHT22;11640;52.520;13.456;2023-04-25T07:39:12;8.90;99.90
22948;DHT22;11640;52.520;13.456;2023-04-25T07:44:14;9.00;99.90
22948;DHT22;11640;52.520;13.456;2023-04-25T07:49:16;9.10;99.90
22948;DHT22;11640;52.520;13.456;2023-04-25T07:54:19;9.30;99.90
22948;DHT22;11640;52.520;13.456;2023-04-25T07:59:26;9.30;99.90
22948;DHT22;11640;52.520;13.456;2023-04-25T08:04:32;9.40;99.90
22948;DHT22;11640;52.520;13.456;2023-04-25T08:09:38;9.30;99.90
22948;DHT22;11640;52.520;13.456;2023-04-25T08:14:44;9.20;99.90
22948;DHT22;11640;52.520;13.456;2023-04-25T08:19:47;9.40;99.90
22948;DHT22;11640;52.520;13.456;2023-04-25T08:24:58;9.50;99.90
22948;DHT22;11640;52.520;13.456;2023-04-25T08:30:00;9.50;99.90
22948;DHT22;11640;52.520;13.456;2023-04-25T08:35:02;9.50;99.90
22948;DHT22;11640;52.520;13.456;2023-04-25T08:40:04;9.40;99.90
22948;DHT22;11640;52.520;13.456;2023-04-25T08:45:18;9.80;99.90
22948;DHT22;11640;52.520;13.456;2023-04-25T08:50:22;10.20;99.90
22948;DHT22;11640;52.520;13.456;2023-04-25T08:55:26;9.90;99.90
22948;DHT22;11640;52.520;13.456;2023-04-25T09:00:31;9.80;99.90
22948;DHT22;11640;52.520;13.456;2023-04-25T09:05:34;9.80;99.90
22948;DHT22;11640;52.520;13.456;2023-04-25T09:10:37;10.30;99.90
22948;DHT22;11640;52.520;13.456;2023-04-25T09:15:51;10.50;99.90
22948;DHT22;11640;52.520;13.456;2023-04-25T09:21:09;10.40;99.90
22948;DHT22;11640;52.520;13.456;2023-04-25T09:26:20;10.30;99.90
22948;DHT22;11640;52.520;13.456;2023-04-25T09:31:24;10.40;99.90
22948;DHT22;11640;52.520;13.456;2023-04-25T09:36:30;10.50;99.90
22948;DHT22;11640;52.520;13.456;2023-04-25T09:41:47;10.60;99.90
22948;DHT22;11640;52.520;13.456;2023-04-25T09:46:50;11.20;99.90
22948;DHT22;11640;52.520;13.456;2023-04-25T09:51:59;11.00;99.90
22948;DHT22;11640;52.520;13.456;2023-04-25T09:57:18;10.90;99.90
22948;DHT22;11640;52.520;13.456;2023-04-25T10:02:23;10.80;99.90
22948;DHT22;11640;52.520;13.456;2023-04-25T10:07:30;10.80;99.90
22948;DHT22;11640;52.520;13.456;2023-04-25T10:12:33;10.90;99.90
22948;DHT22;11640;52.520;13.456;2023-04-25T10:17:36;11.00;99.90
22948;DHT22;11640;52.520;13.456;2023-04-25T10:22:42;11.00;99.90
22948;DHT22;11640;52.520;13.456;2023-04-25T10:27:44;11.50;99.90
22948;DHT22;11640;52.520;13.456;2023-04-25T10:32:46;11.60;99.90
22948;DHT22;11640;52.520;13.456;2023-04-25T10:38:09;11.40;99.90
22948;DHT22;11640;52.520;13.456;2023-04-25T10:48:32;10.90;99.90
22948;DHT22;11640;52.520;13.456;2023-04-25T10:53:36;11.10;99.90
22948;DHT22;11640;52.520;13.456;2023-04-25T10:58:47;11.60;99.90
22948;DHT22;11640;52.520;13.456;2023-04-25T11:03:57;11.10;99.90
22948;DHT22;11640;52.520;13.456;2023-04-25T11:09:00;11.50;99.90
22948;DHT22;11640;52.520;13.456;2023-04-25T11:14:03;11.80;99.90
22948;DHT22;11640;52.520;13.456;2023-04-25T11:19:04;11.40;99.90
22948;DHT22;11640;52.520;13.456;2023-04-25T11:24:06;11.20;99.90
22948;DHT22;11640;52.520;13.456;2023-04-25T11:29:08;10.40;99.90
22948;DHT22;11640;52.520;13.456;2023-04-25T11:34:10;10.10;99.90
22948;DHT22;11640;52.520;13.456;2023-04-25T11:39:12;10.40;99.90
22948;DHT22;11640;52.520;13.456;2023-04-25T11:44:17;10.30;99.90
22948;DHT22;11640;52.520;13.456;2023-04-25T11:49:19;10.40;99.90
22948;DHT22;11640;52.520;13.456;2023-04-25T11:54:22;10.70;99.90
22948;DHT22;11640;52.520;13.456;2023-04-25T11:59:25;10.70;99.90
22948;DHT22;11640;52.520;13.456;2023-04-25T12:04:30;11.20;99.90
22948;DHT22;11640;52.520;13.456;2023-04-25T12:09:34;11.10;99.90
22948;DHT22;11640;52.520;13.456;2023-04-25T12:14:35;11.10;99.90
22948;DHT22;11640;52.520;13.456;2023-04-25T12:19:38;11.20;99.90
22948;DHT22;11640;52.520;13.456;2023-04-25T12:24:45;10.90;99.90
22948;DHT22;11640;52.520;13.456;2023-04-25T12:29:52;10.90;99.90
22948;DHT22;11640;52.520;13.456;2023-04-25T12:34:54;10.80;99.90
22948;DHT22;11640;52.520;13.456;2023-04-25T12:39:56;11.00;99.50
22948;DHT22;11640;52.520;13.456;2023-04-25T12:44:57;10.90;99.60
22948;DHT22;11640;52.520;13.456;2023-04-25T12:49:59;11.30;99.10
22948;DHT22;11640;52.520;13.456;2023-04-25T12:55:01;11.10;98.50
22948;DHT22;11640;52.520;13.456;2023-04-25T13:00:03;11.40;98.40
22948;DHT22;11640;52.520;13.456;2023-04-25T13:05:07;11.00;99.50
22948;DHT22;11640;52.520;13.456;2023-04-25T13:10:10;11.40;96.80
22948;DHT22;11640;52.520;13.456;2023-04-25T13:15:12;11.30;96.10
22948;DHT22;11640;52.520;13.456;2023-04-25T13:20:13;11.60;95.40
22948;DHT22;11640;52.520;13.456;2023-04-25T13:25:17;11.50;97.10
22948;DHT22;11640;52.520;13.456;2023-04-25T13:30:18;12.80;95.20
22948;DHT22;11640;52.520;13.456;2023-04-25T13:35:20;13.20;91.50
22948;DHT22;11640;52.520;13.456;2023-04-25T13:40:22;12.40;94.50
22948;DHT22;11640;52.520;13.456;2023-04-25T13:45:26;12.10;96.20
22948;DHT22;11640;52.520;13.456;2023-04-25T13:50:28;11.70;97.70
22948;DHT22;11640;52.520;13.456;2023-04-25T13:55:29;11.50;98.00
22948;DHT22;11640;52.520;13.456;2023-04-25T14:00:31;11.70;98.20
22948;DHT22;11640;52.520;13.456;2023-04-25T14:05:34;11.50;99.00
22948;DHT22;11640;52.520;13.456;2023-04-25T14:10:39;11.90;98.50
22948;DHT22;11640;52.520;13.456;2023-04-25T14:15:41;11.80;98.90
22948;DHT22;11640;52.520;13.456;2023-04-25T14:20:43;11.70;99.00
22948;DHT22;11640;52.520;13.456;2023-04-25T14:25:45;11.30;99.80
22948;DHT22;11640;52.520;13.456;2023-04-25T14:30:47;10.90;99.90
22948;DHT22;11640;52.520;13.456;2023-04-25T14:35:49;11.10;99.10
22948;DHT22;11640;52.520;13.456;2023-04-25T14:40:51;10.90;98.20
22948;DHT22;11640;52.520;13.456;2023-04-25T14:45:53;10.90;98.60
22948;DHT22;11640;52.520;13.456;2023-04-25T14:50:59;11.20;98.60
22948;DHT22;11640;52.520;13.456;2023-04-25T14:56:01;11.50;99.10
22948;DHT22;11640;52.520;13.456;2023-04-25T15:01:03;11.00;99.90
22948;DHT22;11640;52.520;13.456;2023-04-25T15:06:05;10.70;99.90
22948;DHT22;11640;52.520;13.456;2023-04-25T15:11:07;10.80;99.90
22948;DHT22;11640;52.520;13.456;2023-04-25T15:16:09;10.60;99.90
22948;DHT22;11640;52.520;13.456;2023-04-25T15:21:11;10.60;99.90
22948;DHT22;11640;52.520;13.456;2023-04-25T15:26:13;10.20;99.90
22948;DHT22;11640;52.520;13.456;2023-04-25T15:31:16;10.40;99.90
22948;DHT22;11640;52.520;13.456;2023-04-25T15:36:17;10.40;99.90
22948;DHT22;11640;52.520;13.456;2023-04-25T15:41:20;10.90;99.90
22948;DHT22;11640;52.520;13.456;2023-04-25T15:46:22;10.80;99.90
22948;DHT22;11640;52.520;13.456;2023-04-25T15:51:24;10.80;99.90
22948;DHT22;11640;52.520;13.456;2023-04-25T15:56:27;10.90;99.90
22948;DHT22;11640;52.520;13.456;2023-04-25T16:01:29;10.50;99.90
22948;DHT22;11640;52.520;13.456;2023-04-25T16:06:31;10.60;99.90
22948;DHT22;11640;52.520;13.456;2023-04-25T16:11:33;10.50;99.90
22948;DHT22;11640;52.520;13.456;2023-04-25T16:16:35;10.60;99.90
22948;DHT22;11640;52.520;13.456;2023-04-25T16:21:37;10.60;99.90
22948;DHT22;11640;52.520;13.456;2023-04-25T16:26:39;10.50;98.30
22948;DHT22;11640;52.520;13.456;2023-04-25T16:31:41;10.30;98.80
22948;DHT22;11640;52.520;13.456;2023-04-25T16:36:44;10.30;98.40
22948;DHT22;11640;52.520;13.456;2023-04-25T16:41:45;10.10;97.00
22948;DHT22;11640;52.520;13.456;2023-04-25T16:46:47;10.00;98.30
22948;DHT22;11640;52.520;13.456;2023-04-25T16:51:49;9.80;99.40
22948;DHT22;11640;52.520;13.456;2023-04-25T16:56:52;9.80;99.40
22948;DHT22;11640;52.520;13.456;2023-04-25T17:01:54;9.80;99.60
22948;DHT22;11640;52.520;13.456;2023-04-25T17:06:55;9.90;99.90
22948;DHT22;11640;52.520;13.456;2023-04-25T17:11:58;9.90;99.90
22948;DHT22;11640;52.520;13.456;2023-04-25T17:17:00;9.70;99.90
22948;DHT22;11640;52.520;13.456;2023-04-25T17:22:02;9.50;99.90
22948;DHT22;11640;52.520;13.456;2023-04-25T17:27:04;9.60;99.90
22948;DHT22;11640;52.520;13.456;2023-04-25T17:32:06;9.50;99.90
22948;DHT22;11640;52.520;13.456;2023-04-25T17:37:08;9.60;99.90
22948;DHT22;11640;52.520;13.456;2023-04-25T17:42:15;9.50;99.90
22948;DHT22;11640;52.520;13.456;2023-04-25T17:47:17;9.50;99.90
22948;DHT22;11640;52.520;13.456;2023-04-25T17:52:19;9.30;99.90
22948;DHT22;11640;52.520;13.456;2023-04-25T17:57:21;9.10;99.90
22948;DHT22;11640;52.520;13.456;2023-04-25T18:02:25;9.10;99.90
22948;DHT22;11640;52.520;13.456;2023-04-25T18:07:27;9.00;99.90
22948;DHT22;11640;52.520;13.456;2023-04-25T18:12:29;9.00;99.90
22948;DHT22;11640;52.520;13.456;2023-04-25T18:17:34;8.80;99.90
22948;DHT22;11640;52.520;13.456;2023-04-25T18:22:41;8.80;99.90
22948;DHT22;11640;52.520;13.456;2023-04-25T18:27:43;8.80;99.90
22948;DHT22;11640;52.520;13.456;2023-04-25T18:32:46;8.80;99.90
22948;DHT22;11640;52.520;13.456;2023-04-25T18:37:48;8.70;99.90
22948;DHT22;11640;52.520;13.456;2023-04-25T18:42:50;8.70;99.90
22948;DHT22;11640;52.520;13.456;2023-04-25T18:47:51;8.50;99.90
22948;DHT22;11640;52.520;13.456;2023-04-25T18:52:54;8.40;99.90
22948;DHT22;11640;52.520;13.456;2023-04-25T18:57:56;8.40;99.90
22948;DHT22;11640;52.520;13.456;2023-04-25T19:02:58;8.30;99.90
22948;DHT22;11640;52.520;13.456;2023-04-25T19:08:04;8.30;99.90
22948;DHT22;11640;52.520;13.456;2023-04-25T19:13:05;8.30;99.90
22948;DHT22;11640;52.520;13.456;2023-04-25T19:18:08;8.30;99.90
22948;DHT22;11640;52.520;13.456;2023-04-25T19:23:10;8.40;99.90
22948;DHT22;11640;52.520;13.456;2023-04-25T19:28:11;8.30;99.90
22948;DHT22;11640;52.520;13.456;2023-04-25T19:33:14;8.20;99.90
22948;DHT22;11640;52.520;13.456;2023-04-25T19:38:16;8.10;99.90
22948;DHT22;11640;52.520;13.456;2023-04-25T19:43:18;8.10;99.90
22948;DHT22;11640;52.520;13.456;2023-04-25T19:48:20;8.00;99.90
22948;DHT22;11640;52.520;13.456;2023-04-25T19:53:22;8.00;99.90
22948;DHT22;11640;52.520;13.456;2023-04-25T19:58:23;7.90;99.90
22948;DHT22;11640;52.520;13.456;2023-04-25T20:03:26;7.80;99.90
22948;DHT22;11640;52.520;13.456;2023-04-25T20:08:28;7.80;99.90
22948;DHT22;11640;52.520;13.456;2023-04-25T20:13:30;7.70;99.90
22948;DHT22;11640;52.520;13.456;2023-04-25T20:18:32;7.60;99.90
22948;DHT22;11640;52.520;13.456;2023-04-25T20:23:34;7.60;99.90
22948;DHT22;11640;52.520;13.456;2023-04-25T20:28:36;7.60;99.90
22948;DHT22;11640;52.520;13.456;2023-04-25T20:33:38;7.50;99.90
22948;DHT22;11640;52.520;13.456;2023-04-25T20:38:40;7.50;99.90
22948;DHT22;11640;52.520;13.456;2023-04-25T20:43:42;7.50;99.90
22948;DHT22;11640;52.520;13.456;2023-04-25T20:48:44;7.40;99.90
22948;DHT22;11640;52.520;13.456;2023-04-25T20:53:46;7.40;99.90
22948;DHT22;11640;52.520;13.456;2023-04-25T20:58:48;7.30;99.90
22948;DHT22;11640;52.520;13.456;2023-04-25T21:03:51;7.30;99.90
22948;DHT22;11640;52.520;13.456;2023-04-25T21:08:53;7.20;99.90
22948;DHT22;11640;52.520;13.456;2023-04-25T21:13:55;7.20;99.90
22948;DHT22;11640;52.520;13.456;2023-04-25T21:19:00;7.10;99.90
22948;DHT22;11640;52.520;13.456;2023-04-25T21:24:04;7.10;99.90
22948;DHT22;11640;52.520;13.456;2023-04-25T21:29:06;7.00;99.90
22948;DHT22;11640;52.520;13.456;2023-04-25T21:34:08;6.80;99.90
22948;DHT22;11640;52.520;13.456;2023-04-25T21:39:09;6.80;99.90
22948;DHT22;11640;52.520;13.456;2023-04-25T21:44:11;6.70;99.90
22948;DHT22;11640;52.520;13.456;2023-04-25T21:49:15;6.70;99.90
22948;DHT22;11640;52.520;13.456;2023-04-25T21:54:17;6.60;99.90
22948;DHT22;11640;52.520;13.456;2023-04-25T21:59:20;6.50;99.90
22948;DHT22;11640;52.520;13.456;2023-04-25T22:04:23;6.50;99.90
22948;DHT22;11640;52.520;13.456;2023-04-25T22:09:25;6.50;99.90
22948;DHT22;11640;52.520;13.456;2023-04-25T22:14:27;6.40;99.90
22948;DHT22;11640;52.520;13.456;2023-04-25T22:19:28;6.30;99.90
22948;DHT22;11640;52.520;13.456;2023-04-25T22:24:30;6.30;99.90
22948;DHT22;11640;52.520;13.456;2023-04-25T22:29:33;6.30;99.90
22948;DHT22;11640;52.520;13.456;2023-04-25T22:34:35;6.30;99.90
22948;DHT22;11640;52.520;13.456;2023-04-25T22:39:37;6.20;99.90
22948;DHT22;11640;52.520;13.456;2023-04-25T22:44:39;6.20;99.90
22948;DHT22;11640;52.520;13.456;2023-04-25T22:49:41;6.10;99.90
22948;DHT22;11640;52.520;13.456;2023-04-25T22:54:43;6.00;99.90
22948;DHT22;11640;52.520;13.456;2023-04-25T22:59:45;6.00;99.90
22948;DHT22;11640;52.520;13.456;2023-04-25T23:04:46;5.90;99.90
22948;DHT22;11640;52.520;13.456;2023-04-25T23:09:48;5.90;99.90
22948;DHT22;11640;52.520;13.456;2023-04-25T23:14:50;5.90;99.90
22948;DHT22;11640;52.520;13.456;2023-04-25T23:19:53;5.90;99.90
22948;DHT22;11640;52.520;13.456;2023-04-25T23:24:54;5.80;99.90
22948;DHT22;11640;52.520;13.456;2023-04-25T23:29:57;5.70;99.90
22948;DHT22;11640;52.520;13.456;2023-04-25T23:34:58;5.60;99.90
22948;DHT22;11640;52.520;13.456;2023-04-25T23:40:00;5.50;99.90
22948;DHT22;11640;52.520;13.456;2023-04-25T23:45:03;5.50;99.90
22948;DHT22;11640;52.520;13.456;2023-04-25T23:50:06;5.50;99.90
22948;DHT22;11640;52.520;13.456;2023-04-25T23:55:08;5.40;99.90
